createdAt,value
2018-06-30T00:02:09.580Z,22.06
2018-06-30T00:05:18.433Z,21.99
2018-06-30T00:08:20.514Z,21.78
2018-06-30T00:11:22.960Z,21.87
2018-06-30T00:14:25.093Z,21.86
2018-06-30T00:17:27.161Z,21.84
2018-06-30T00:20:29.204Z,21.84
2018-06-30T00:23:31.337Z,21.81
2018-06-30T00:26:33.534Z,21.66
2018-06-30T00:29:35.657Z,21.69
2018-06-30T00:32:37.699Z,21.73
2018-06-30T00:35:39.759Z,21.64
2018-06-30T00:38:41.917Z,21.39
2018-06-30T00:41:44.558Z,21.43
2018-06-30T00:44:48.616Z,21.09
2018-06-30T00:47:50.719Z,21.10
2018-06-30T00:50:52.781Z,21.08
2018-06-30T00:53:54.868Z,21.03
2018-06-30T00:56:56.975Z,21.10
2018-06-30T00:59:59.020Z,21.11
2018-06-30T01:03:01.192Z,21.03
2018-06-30T01:06:03.375Z,21.07
2018-06-30T01:09:07.002Z,20.97
2018-06-30T01:12:09.055Z,20.82
2018-06-30T01:15:11.249Z,20.81
2018-06-30T01:18:14.572Z,20.69
2018-06-30T01:21:28.880Z,20.51
2018-06-30T01:24:31.039Z,20.57
2018-06-30T01:27:33.231Z,20.60
2018-06-30T01:30:35.479Z,20.69
2018-06-30T01:33:37.656Z,20.71
2018-06-30T01:36:39.724Z,20.72
2018-06-30T01:39:41.769Z,20.57
2018-06-30T01:42:44.164Z,20.57
2018-06-30T01:45:46.224Z,20.46
2018-06-30T01:48:49.305Z,20.38
2018-06-30T01:51:51.380Z,20.38
2018-06-30T01:54:53.555Z,20.22
2018-06-30T01:57:55.798Z,20.05
2018-06-30T02:00:57.889Z,19.91
2018-06-30T02:03:59.936Z,19.73
2018-06-30T02:07:02.044Z,19.84
2018-06-30T02:10:04.251Z,19.97
2018-06-30T02:13:06.175Z,20.01
2018-06-30T02:16:08.229Z,20.10
2018-06-30T02:19:10.396Z,20.13
2018-06-30T02:22:12.474Z,20.20
2018-06-30T02:25:15.122Z,20.24
2018-06-30T02:28:17.240Z,20.29
2018-06-30T02:31:19.419Z,20.22
2018-06-30T02:34:21.535Z,20.22
2018-06-30T02:37:23.525Z,20.09
2018-06-30T02:40:25.671Z,20.00
2018-06-30T02:43:27.792Z,20.00
2018-06-30T02:46:29.864Z,19.86
2018-06-30T02:49:42.517Z,19.91
2018-06-30T02:52:44.879Z,19.91
2018-06-30T02:55:46.925Z,19.83
2018-06-30T02:59:02.314Z,19.70
2018-06-30T03:02:04.340Z,19.69
2018-06-30T03:05:06.443Z,19.58
2018-06-30T03:08:09.553Z,19.62
2018-06-30T03:11:11.718Z,19.59
2018-06-30T03:14:14.700Z,19.44
2018-06-30T03:17:17.804Z,19.45
2018-06-30T03:20:19.990Z,19.49
2018-06-30T03:23:21.967Z,19.47
2018-06-30T03:26:23.990Z,19.38
2018-06-30T03:29:26.066Z,19.31
2018-06-30T03:32:28.032Z,19.30
2018-06-30T03:35:30.605Z,19.34
2018-06-30T03:38:32.724Z,19.39
2018-06-30T03:41:34.744Z,19.30
2018-06-30T03:44:36.920Z,19.36
2018-06-30T03:47:39.083Z,19.43
2018-06-30T03:50:41.177Z,19.52
2018-06-30T03:53:44.341Z,19.53
2018-06-30T03:56:46.467Z,19.47
2018-06-30T03:59:48.458Z,19.47
2018-06-30T04:02:50.391Z,19.42
2018-06-30T04:05:52.530Z,19.39
2018-06-30T04:08:54.743Z,19.40
2018-06-30T04:12:03.832Z,19.33
2018-06-30T04:15:06.272Z,19.36
2018-06-30T04:18:08.381Z,19.34
2018-06-30T04:21:16.072Z,19.25
2018-06-30T04:24:18.150Z,19.35
2018-06-30T04:27:20.199Z,19.45
2018-06-30T04:30:22.291Z,19.50
2018-06-30T04:33:24.354Z,19.55
2018-06-30T04:36:26.429Z,19.51
2018-06-30T04:39:28.372Z,19.69
2018-06-30T04:42:30.450Z,19.64
2018-06-30T04:45:32.531Z,19.75
2018-06-30T04:48:34.708Z,19.67
2018-06-30T04:51:36.867Z,19.74
2018-06-30T04:54:38.923Z,19.76
2018-06-30T04:57:41.172Z,19.91
2018-06-30T05:00:43.977Z,20.03
2018-06-30T05:03:46.872Z,20.10
2018-06-30T05:06:48.947Z,20.22
2018-06-30T05:09:51.126Z,20.43
2018-06-30T05:13:16.926Z,20.50
2018-06-30T05:16:19.002Z,20.51
2018-06-30T05:19:21.037Z,20.61
2018-06-30T05:22:23.162Z,20.63
2018-06-30T05:25:25.225Z,20.72
2018-06-30T05:28:27.303Z,20.90
2018-06-30T05:31:29.473Z,20.95
2018-06-30T05:34:31.631Z,20.98
2018-06-30T05:37:33.683Z,21.17
2018-06-30T05:40:35.800Z,21.16
2018-06-30T05:43:37.926Z,21.18
2018-06-30T05:46:40.017Z,21.21
2018-06-30T05:49:41.991Z,21.30
2018-06-30T05:52:44.118Z,21.39
2018-06-30T05:55:46.908Z,21.40
2018-06-30T05:58:49.013Z,21.39
2018-06-30T06:01:51.067Z,21.46
2018-06-30T06:04:53.195Z,21.58
2018-06-30T06:07:55.195Z,21.63
2018-06-30T06:10:57.293Z,21.65
2018-06-30T06:13:59.384Z,21.71
2018-06-30T06:17:01.667Z,21.86
2018-06-30T06:20:04.198Z,21.97
2018-06-30T06:23:07.228Z,21.94
2018-06-30T06:26:09.675Z,22.02
2018-06-30T06:29:11.767Z,22.25
2018-06-30T06:32:13.987Z,22.24
2018-06-30T06:35:29.554Z,22.07
2018-06-30T06:38:31.697Z,22.13
2018-06-30T06:41:33.781Z,22.22
2018-06-30T06:44:46.391Z,22.51
2018-06-30T06:47:48.643Z,22.83
2018-06-30T06:50:50.768Z,22.94
2018-06-30T06:53:54.947Z,22.83
2018-06-30T06:56:58.207Z,22.97
2018-06-30T07:00:00.321Z,23.14
2018-06-30T07:03:08.419Z,23.29
2018-06-30T07:06:10.527Z,23.47
2018-06-30T07:09:12.644Z,23.56
2018-06-30T07:12:15.533Z,23.67
2018-06-30T07:15:17.817Z,23.71
2018-06-30T07:18:19.773Z,23.77
2018-06-30T07:21:21.895Z,23.60
2018-06-30T07:24:24.016Z,23.73
2018-06-30T07:27:26.193Z,23.72
2018-06-30T07:30:28.139Z,23.88
2018-06-30T07:33:30.236Z,24.04
2018-06-30T07:36:32.416Z,24.07
2018-06-30T07:39:34.531Z,24.00
2018-06-30T07:42:36.683Z,24.18
2018-06-30T07:45:38.709Z,24.28
2018-06-30T07:48:40.774Z,24.38
2018-06-30T07:51:42.880Z,24.46
2018-06-30T07:54:45.739Z,24.51
2018-06-30T07:57:47.831Z,24.86
2018-06-30T08:00:51.052Z,25.31
2018-06-30T08:03:52.862Z,25.53
2018-06-30T08:06:55.092Z,25.17
2018-06-30T08:09:57.271Z,25.32
2018-06-30T08:12:59.383Z,25.60
2018-06-30T08:16:01.601Z,25.84
2018-06-30T08:19:04.192Z,26.12
2018-06-30T08:22:07.300Z,26.28
2018-06-30T08:25:09.485Z,26.26
2018-06-30T08:28:11.623Z,26.32
2018-06-30T08:31:13.887Z,26.60
2018-06-30T08:34:16.322Z,26.75
2018-06-30T08:37:18.448Z,26.95
2018-06-30T08:40:20.617Z,27.02
2018-06-30T08:43:22.619Z,26.52
2018-06-30T08:46:24.963Z,26.30
2018-06-30T08:49:26.991Z,26.46
2018-06-30T08:52:29.559Z,26.69
2018-06-30T08:55:32.082Z,26.79
2018-06-30T08:58:35.538Z,26.90
2018-06-30T09:01:37.922Z,27.03
2018-06-30T09:04:40.549Z,27.14
2018-06-30T09:07:42.711Z,27.23
2018-06-30T09:10:44.952Z,27.22
2018-06-30T09:13:46.940Z,27.32
2018-06-30T09:16:49.167Z,27.56
2018-06-30T09:19:51.450Z,27.68
2018-06-30T09:22:53.459Z,27.92
2018-06-30T09:25:55.626Z,28.18
2018-06-30T09:28:57.769Z,28.33
2018-06-30T09:31:59.935Z,28.36
2018-06-30T09:35:02.137Z,28.22
2018-06-30T09:38:04.283Z,28.36
2018-06-30T09:41:06.426Z,28.60
2018-06-30T09:44:08.982Z,28.71
2018-06-30T09:47:11.133Z,28.74
2018-06-30T09:50:13.328Z,28.60
2018-06-30T09:53:15.600Z,28.84
2018-06-30T09:56:21.381Z,28.78
2018-06-30T09:59:23.843Z,28.89
2018-06-30T10:02:25.925Z,29.03
2018-06-30T10:05:28.277Z,29.16
2018-06-30T10:08:30.371Z,28.99
2018-06-30T10:11:36.303Z,29.06
2018-06-30T10:14:38.429Z,29.07
2018-06-30T10:17:41.951Z,29.04
2018-06-30T10:20:44.525Z,29.09
2018-06-30T10:23:47.070Z,29.26
2018-06-30T10:26:50.844Z,29.49
2018-06-30T10:29:53.056Z,29.49
2018-06-30T10:32:55.037Z,29.61
2018-06-30T10:35:58.537Z,29.83
2018-06-30T10:39:02.116Z,29.92
2018-06-30T10:42:05.009Z,29.99
2018-06-30T10:45:08.155Z,30.07
2018-06-30T10:48:10.728Z,30.11
2018-06-30T10:51:13.193Z,29.92
2018-06-30T10:54:15.721Z,30.00
2018-06-30T10:57:18.242Z,30.18
2018-06-30T11:00:21.789Z,30.26
2018-06-30T11:03:24.227Z,30.47
2018-06-30T11:06:26.276Z,30.58
2018-06-30T11:09:28.815Z,30.62
2018-06-30T11:12:31.322Z,30.60
2018-06-30T11:15:33.859Z,30.65
2018-06-30T11:18:37.331Z,30.63
2018-06-30T11:21:39.830Z,30.73
2018-06-30T11:24:41.908Z,30.68
2018-06-30T11:27:44.427Z,30.65
2018-06-30T11:30:46.839Z,30.73
2018-06-30T11:33:48.894Z,30.99
2018-06-30T11:36:51.558Z,30.80
2018-06-30T11:39:53.971Z,30.89
2018-06-30T11:42:55.987Z,30.89
2018-06-30T11:45:58.528Z,30.84
2018-06-30T11:49:00.989Z,31.03
2018-06-30T11:52:03.578Z,31.06
2018-06-30T11:55:06.055Z,31.02
2018-06-30T11:58:08.571Z,31.17
2018-06-30T12:01:10.731Z,31.39
2018-06-30T12:04:12.785Z,31.36
2018-06-30T12:07:15.959Z,31.36
2018-06-30T12:10:18.210Z,31.12
2018-06-30T12:13:20.324Z,31.23
2018-06-30T12:16:23.457Z,31.18
2018-06-30T12:19:25.588Z,31.42
2018-06-30T12:22:27.621Z,31.47
2018-06-30T12:25:30.016Z,31.62
2018-06-30T12:28:32.095Z,31.70
2018-06-30T12:31:34.236Z,31.79
2018-06-30T12:34:36.484Z,31.93
2018-06-30T12:37:38.564Z,32.02
2018-06-30T12:40:40.930Z,31.76
2018-06-30T12:43:43.805Z,31.93
2018-06-30T12:46:46.808Z,32.16
2018-06-30T12:49:48.781Z,32.04
2018-06-30T12:52:50.912Z,31.71
2018-06-30T12:55:52.921Z,31.84
2018-06-30T12:58:55.207Z,31.98
2018-06-30T13:01:57.326Z,31.92
2018-06-30T13:04:59.482Z,31.92
2018-06-30T13:08:01.631Z,32.04
2018-06-30T13:11:03.809Z,32.18
2018-06-30T13:14:06.244Z,32.25
2018-06-30T13:17:08.416Z,32.41
2018-06-30T13:20:10.576Z,32.43
2018-06-30T13:23:12.823Z,32.33
2018-06-30T13:26:14.811Z,32.22
2018-06-30T13:29:16.940Z,32.39
2018-06-30T13:32:19.014Z,32.49
2018-06-30T13:35:21.252Z,32.44
2018-06-30T13:38:23.580Z,32.06
2018-06-30T13:41:25.614Z,31.92
2018-06-30T13:44:27.866Z,31.86
2018-06-30T13:47:29.943Z,31.75
2018-06-30T13:50:32.113Z,31.74
2018-06-30T13:53:34.405Z,31.68
2018-06-30T13:56:36.663Z,31.77
2018-06-30T13:59:38.787Z,31.68
2018-06-30T14:02:41.024Z,32.01
2018-06-30T14:05:43.233Z,32.40
2018-06-30T14:08:45.299Z,32.33
2018-06-30T14:11:47.589Z,32.43
2018-06-30T14:14:50.676Z,32.33
2018-06-30T14:17:54.596Z,32.13
2018-06-30T14:20:56.657Z,32.01
2018-06-30T14:23:58.798Z,32.29
2018-06-30T14:27:00.890Z,32.35
2018-06-30T14:30:04.174Z,32.37
2018-06-30T14:33:07.313Z,32.07
2018-06-30T14:36:09.638Z,31.58
2018-06-30T14:39:12.435Z,31.32
2018-06-30T14:42:14.509Z,31.23
2018-06-30T14:45:17.650Z,31.13
2018-06-30T14:48:20.028Z,31.15
2018-06-30T14:51:22.056Z,31.09
2018-06-30T14:54:24.315Z,31.02
2018-06-30T14:57:26.583Z,30.99
2018-06-30T15:00:28.706Z,31.14
2018-06-30T15:03:30.843Z,31.51
2018-06-30T15:06:33.113Z,31.42
2018-06-30T15:09:35.222Z,31.28
2018-06-30T15:12:37.524Z,31.13
2018-06-30T15:15:40.225Z,30.75
2018-06-30T15:18:42.413Z,30.81
2018-06-30T15:21:45.493Z,30.81
2018-06-30T15:24:47.665Z,30.62
2018-06-30T15:27:49.735Z,30.76
2018-06-30T15:30:51.733Z,30.80
2018-06-30T15:33:53.929Z,31.05
2018-06-30T15:36:56.085Z,30.98
2018-06-30T15:39:58.112Z,31.22
2018-06-30T15:43:00.600Z,31.30
2018-06-30T15:46:03.354Z,30.97
2018-06-30T15:49:05.427Z,30.81
2018-06-30T15:52:07.530Z,30.68
2018-06-30T15:55:09.666Z,30.78
2018-06-30T15:58:11.865Z,30.90
2018-06-30T16:01:14.728Z,30.99
2018-06-30T16:04:17.883Z,30.92
2018-06-30T16:07:21.039Z,31.00
2018-06-30T16:10:23.156Z,30.97
2018-06-30T16:13:25.580Z,30.73
2018-06-30T16:16:27.942Z,30.73
2018-06-30T16:19:29.971Z,30.75
2018-06-30T16:22:32.004Z,30.79
2018-06-30T16:25:34.374Z,30.85
2018-06-30T16:28:36.469Z,30.92
2018-06-30T16:31:38.519Z,30.72
2018-06-30T16:34:41.015Z,30.44
2018-06-30T16:37:43.165Z,30.45
2018-06-30T16:40:45.379Z,30.48
2018-06-30T16:43:49.136Z,30.49
2018-06-30T16:46:51.205Z,30.56
2018-06-30T16:49:53.303Z,30.44
2018-06-30T16:52:55.485Z,30.50
2018-06-30T16:55:57.632Z,30.30
2018-06-30T16:58:59.712Z,30.12
2018-06-30T17:02:01.723Z,30.14
2018-06-30T17:05:03.911Z,30.12
2018-06-30T17:08:09.728Z,30.10
2018-06-30T17:11:11.877Z,30.05
2018-06-30T17:14:14.229Z,29.95
2018-06-30T17:17:16.308Z,29.87
2018-06-30T17:20:18.530Z,29.77
2018-06-30T17:23:20.652Z,29.78
2018-06-30T17:26:22.915Z,29.75
2018-06-30T17:29:24.939Z,29.63
2018-06-30T17:32:26.894Z,29.53
2018-06-30T17:35:29.038Z,29.48
2018-06-30T17:38:31.189Z,29.37
2018-06-30T17:41:33.349Z,29.23
2018-06-30T17:44:36.387Z,29.18
2018-06-30T17:47:38.491Z,29.07
2018-06-30T17:50:40.863Z,29.08
2018-06-30T17:53:43.007Z,28.98
2018-06-30T17:56:45.042Z,28.97
2018-06-30T17:59:47.012Z,28.89
2018-06-30T18:02:49.136Z,28.79
2018-06-30T18:05:51.283Z,28.76
2018-06-30T18:08:53.417Z,28.69
2018-06-30T18:11:56.400Z,28.66
2018-06-30T18:14:58.480Z,28.61
2018-06-30T18:18:00.435Z,28.58
2018-06-30T18:21:02.432Z,28.52
2018-06-30T18:24:07.659Z,28.40
2018-06-30T18:27:09.729Z,28.31
2018-06-30T18:30:11.916Z,28.18
2018-06-30T18:33:13.955Z,28.10
2018-06-30T18:36:16.042Z,28.08
2018-06-30T18:39:18.241Z,28.10
2018-06-30T18:42:22.352Z,28.04
2018-06-30T18:45:24.400Z,27.86
2018-06-30T18:48:26.592Z,27.75
2018-06-30T18:51:28.597Z,27.63
2018-06-30T18:54:30.732Z,27.57
2018-06-30T18:57:32.927Z,27.55
2018-06-30T19:00:35.199Z,27.45
2018-06-30T19:03:38.380Z,27.39
2018-06-30T19:06:40.590Z,27.32
2018-06-30T19:09:42.695Z,27.22
2018-06-30T19:12:45.680Z,27.14
2018-06-30T19:15:47.915Z,27.07
2018-06-30T19:18:49.994Z,26.98
2018-06-30T19:21:52.150Z,26.88
2018-06-30T19:24:54.483Z,26.82
2018-06-30T19:27:56.704Z,26.73
2018-06-30T19:30:58.910Z,26.67
2018-06-30T19:34:01.095Z,26.61
2018-06-30T19:37:03.353Z,26.51
2018-06-30T19:40:07.174Z,26.47
2018-06-30T19:43:09.247Z,26.32
2018-06-30T19:46:11.401Z,26.24
2018-06-30T19:49:13.572Z,26.21
2018-06-30T19:52:15.559Z,26.18
2018-06-30T19:55:19.222Z,26.09
2018-06-30T19:58:21.755Z,26.00
2018-06-30T20:01:23.920Z,25.90
2018-06-30T20:04:25.868Z,25.81
2018-06-30T20:07:31.172Z,25.75
2018-06-30T20:10:34.240Z,25.71
2018-06-30T20:13:36.521Z,25.68
2018-06-30T20:16:40.655Z,25.62
2018-06-30T20:19:42.815Z,25.57
2018-06-30T20:22:44.925Z,25.44
2018-06-30T20:25:47.128Z,25.35
2018-06-30T20:28:49.252Z,25.35
2018-06-30T20:31:51.408Z,25.33
2018-06-30T20:34:54.535Z,25.29
2018-06-30T20:37:56.629Z,25.23
2018-06-30T20:40:58.799Z,25.15
2018-06-30T20:44:00.955Z,25.08
2018-06-30T20:47:02.939Z,24.98
2018-06-30T20:50:06.006Z,24.96
2018-06-30T20:53:09.656Z,24.92
2018-06-30T20:56:11.784Z,24.79
2018-06-30T20:59:13.858Z,24.69
2018-06-30T21:02:15.936Z,24.67
2018-06-30T21:05:17.993Z,24.65
2018-06-30T21:08:20.213Z,24.63
2018-06-30T21:11:22.223Z,24.47
2018-06-30T21:14:24.339Z,24.39
2018-06-30T21:17:26.392Z,24.32
2018-06-30T21:20:28.469Z,24.33
2018-06-30T21:23:30.629Z,24.23
2018-06-30T21:26:32.714Z,24.13
2018-06-30T21:29:35.653Z,24.14
2018-06-30T21:32:37.645Z,23.99
2018-06-30T21:35:39.847Z,23.87
2018-06-30T21:38:41.875Z,23.80
2018-06-30T21:41:43.879Z,23.77
2018-06-30T21:44:46.028Z,23.70
2018-06-30T21:47:48.095Z,23.61
2018-06-30T21:50:50.144Z,23.51
2018-06-30T21:53:52.157Z,23.48
2018-06-30T21:56:54.184Z,23.40
2018-06-30T21:59:56.277Z,23.35
2018-06-30T22:02:58.374Z,23.26
2018-06-30T22:06:00.397Z,23.25
2018-06-30T22:09:06.483Z,23.24
2018-06-30T22:12:08.447Z,23.16
2018-06-30T22:15:10.688Z,23.11
2018-06-30T22:18:15.032Z,23.09
2018-06-30T22:21:17.097Z,23.01
2018-06-30T22:24:20.203Z,22.93
2018-06-30T22:27:22.413Z,22.85
2018-06-30T22:30:24.540Z,22.79
2018-06-30T22:33:27.640Z,22.70
2018-06-30T22:36:29.745Z,22.63
2018-06-30T22:39:43.345Z,22.59
2018-06-30T22:42:45.863Z,22.52
2018-06-30T22:45:47.863Z,22.44
2018-06-30T22:48:50.255Z,22.42
2018-06-30T22:51:52.227Z,22.30
2018-06-30T22:54:55.308Z,22.31
2018-06-30T22:57:59.464Z,22.24
2018-06-30T23:01:01.496Z,22.30
2018-06-30T23:04:04.813Z,22.22
2018-06-30T23:07:06.904Z,22.13
2018-06-30T23:10:10.122Z,22.06
2018-06-30T23:13:12.180Z,22.03
2018-06-30T23:16:14.315Z,22.02
2018-06-30T23:19:16.399Z,22.01
2018-06-30T23:23:25.570Z,22.02
2018-06-30T23:26:27.694Z,21.93
2018-06-30T23:29:29.788Z,21.89
2018-06-30T23:32:31.803Z,21.83
2018-06-30T23:35:35.077Z,21.79
2018-06-30T23:38:37.196Z,21.76
2018-06-30T23:41:39.352Z,21.70
2018-06-30T23:44:41.547Z,21.69
2018-06-30T23:47:43.559Z,21.57
2018-06-30T23:50:45.705Z,21.51
2018-06-30T23:53:47.704Z,21.47
2018-06-30T23:56:49.814Z,21.51
2018-06-30T23:59:51.931Z,21.38
